Pattonsburg, Missouri
Current Conditions -  °F | °C
As of 1:53 AM on Thursday 23 Oct 2014 (Local Time) from KLWD Reporting Station
Few Clouds Few Clouds  
Wind Chill: 55°   Ceiling: Unl
Heat Index: 55°   Visibility: 10mi
Dew Point: 44°   Wind: 10mph
Humidity: 67%   Direction: 210°SSW
Pressure: 30.11"   Gusts: NA
Location:  40.05°N, 94.14°W
Report Text: KLWD 230653Z AUTO 21009KT 180V250 10SM FEW050 FEW095 13/07 A3011 RMK AO2 LTG DSNT N SLP196 T01280067
Loading
Personal Weather Stations






























Interactive Weather Map
Tropical Storm Tracking
New forecast layout! Learn more

10-Day Weather Forecast

Advertisements
Track Severe Weather on mobile